Time;durP1;ratioP1;P1;durP2;ratioP2;P2;SDS_P1;SDS_P2;PMS_P1;PMS_P2;Temp;Humidity;BMP_temperature;BMP_pressure;BME280_temperature;BME280_humidity;BME280_pressure;Samples;Min_cycle;Max_cycle;Signal;HPM_P1;HPM_P2
2024/04/10 00:01:28;;;;;;;9.48;1.48;;;12.10;93.20;;;;;;5373480;26;20488;-74
2024/04/10 00:03:54;;;;;;;2.35;1.05;;;12.10;93.20;;;;;;5373192;26;20003;-74
2024/04/10 00:06:19;;;;;;;5.03;1.63;;;12.10;93.10;;;;;;5373304;26;20004;-74
2024/04/10 00:08:45;;;;;;;10.02;1.50;;;12.10;93.20;;;;;;5365109;26;20016;-74
2024/04/10 00:11:11;;;;;;;5.25;1.60;;;12.10;93.20;;;;;;5370623;26;20012;-74
2024/04/10 00:13:37;;;;;;;2.03;0.98;;;12.10;93.10;;;;;;5372289;26;20140;-74
2024/04/10 00:16:03;;;;;;;8.82;1.70;;;12.00;93.10;;;;;;5362331;26;20436;-74
2024/04/10 00:18:30;;;;;;;7.05;1.30;;;12.00;93.20;;;;;;5370152;26;20043;-74
2024/04/10 00:20:56;;;;;;;2.20;1.00;;;12.00;93.20;;;;;;5375062;26;20010;-75
2024/04/10 00:23:23;;;;;;;5.63;1.17;;;12.00;93.40;;;;;;5373812;26;20007;-74
2024/04/10 00:25:59;;;;;;;4.38;1.40;;;11.90;93.30;;;;;;5376039;26;20004;-74
2024/04/10 00:28:27;;;;;;;4.28;1.33;;;12.00;93.40;;;;;;5373053;26;20015;-74
2024/04/10 00:30:52;;;;;;;4.03;0.98;;;12.00;93.50;;;;;;5372507;26;20000;-75
2024/04/10 00:33:19;;;;;;;8.35;1.17;;;12.00;93.70;;;;;;5374258;26;20638;-74
2024/04/10 00:35:57;;;;;;;3.33;0.93;;;11.90;93.70;;;;;;5378881;26;20012;-74
2024/04/10 00:38:25;;;;;;;5.05;1.40;;;12.00;93.80;;;;;;5373563;26;20000;-74
2024/04/10 00:40:55;;;;;;;4.78;1.23;;;12.00;93.70;;;;;;5374554;26;20008;-74
2024/04/10 00:43:21;;;;;;;4.68;1.33;;;12.00;93.70;;;;;;5368125;26;20012;-75
2024/04/10 00:45:55;;;;;;;3.10;0.80;;;12.10;93.70;;;;;;5376566;26;20012;-74
2024/04/10 00:48:21;;;;;;;1.98;0.70;;;12.10;93.70;;;;;;5380307;26;20008;-75
2024/04/10 00:50:47;;;;;;;4.85;1.05;;;12.10;93.70;;;;;;5372823;26;20019;-74
2024/04/10 00:53:12;;;;;;;3.97;0.65;;;12.10;93.70;;;;;;5355221;26;20005;-74
2024/04/10 00:55:39;;;;;;;0.95;0.50;;;12.10;93.70;;;;;;5370366;26;20011;-74
2024/04/10 00:58:05;;;;;;;3.95;1.02;;;12.10;93.70;;;;;;5375114;26;20011;-74
2024/04/10 01:00:32;;;;;;;2.20;1.05;;;12.20;93.70;;;;;;5372828;26;20481;-74
2024/04/10 01:02:58;;;;;;;5.03;0.80;;;12.20;93.60;;;;;;5374419;26;20511;-74
2024/04/10 01:05:23;;;;;;;3.20;1.02;;;12.20;93.70;;;;;;5371922;26;20463;-74
2024/04/10 01:07:49;;;;;;;5.22;0.85;;;12.20;93.60;;;;;;5370044;26;19996;-74
2024/04/10 01:10:15;;;;;;;3.40;1.20;;;12.20;93.60;;;;;;5373204;26;20000;-74
2024/04/10 01:12:43;;;;;;;3.00;1.27;;;12.30;93.60;;;;;;5374258;26;20001;-74
2024/04/10 01:15:09;;;;;;;0.85;0.68;;;12.30;93.60;;;;;;5385978;26;19996;-74
2024/04/10 01:17:35;;;;;;;1.13;0.77;;;12.30;93.60;;;;;;5372906;26;20000;-74
2024/04/10 01:20:06;;;;;;;2.42;0.80;;;12.30;93.60;;;;;;5372538;26;20000;-75
2024/04/10 01:22:31;;;;;;;0.57;0.57;;;12.30;93.70;;;;;;5373329;26;20015;-74
2024/04/10 01:24:57;;;;;;;0.90;0.40;;;12.30;93.70;;;;;;5372841;26;20004;-74
2024/04/10 01:27:23;;;;;;;2.20;0.75;;;12.30;93.70;;;;;;5376286;26;20012;-74
2024/04/10 01:29:48;;;;;;;1.73;0.90;;;12.30;93.80;;;;;;5359758;26;20000;-74
2024/04/10 01:32:14;;;;;;;1.30;0.98;;;12.30;93.80;;;;;;5378772;26;20004;-74
2024/04/10 01:34:39;;;;;;;2.45;0.85;;;12.30;93.90;;;;;;5374221;26;20078;-74
2024/04/10 01:37:05;;;;;;;7.93;0.77;;;12.30;93.90;;;;;;5377106;26;20015;-74
2024/04/10 01:39:31;;;;;;;1.35;0.77;;;12.20;93.90;;;;;;5373465;26;20455;-74
2024/04/10 01:41:56;;;;;;;1.35;0.90;;;12.30;94.00;;;;;;5376721;26;20000;-74
2024/04/10 01:44:22;;;;;;;2.20;1.13;;;12.30;94.00;;;;;;5376441;26;20084;-75
2024/04/10 01:46:47;;;;;;;4.68;0.70;;;12.30;93.90;;;;;;5374724;26;20463;-74
2024/04/10 01:49:14;;;;;;;1.65;0.77;;;12.30;93.90;;;;;;5376839;26;20011;-74
2024/04/10 01:51:40;;;;;;;1.70;0.90;;;12.30;94.00;;;;;;5371446;26;20425;-75
2024/04/10 01:54:05;;;;;;;4.07;0.80;;;12.30;94.00;;;;;;5374130;26;20001;-74
2024/04/10 01:56:31;;;;;;;2.70;0.70;;;12.20;93.90;;;;;;5375745;26;20003;-74
2024/04/10 01:58:56;;;;;;;5.75;1.20;;;12.20;93.90;;;;;;5377158;26;19996;-74
2024/04/10 02:01:22;;;;;;;4.22;0.80;;;12.20;93.90;;;;;;5376500;26;20004;-74
2024/04/10 02:03:48;;;;;;;1.88;0.73;;;12.10;94.00;;;;;;5368478;26;20001;-74
2024/04/10 02:06:14;;;;;;;2.13;0.52;;;12.10;94.10;;;;;;5351562;26;19997;-75
2024/04/10 02:08:40;;;;;;;4.22;0.50;;;12.10;94.10;;;;;;5379209;26;20081;-74
2024/04/10 02:11:26;;;;;;;1.65;0.77;;;12.20;94.20;;;;;;5376326;26;20329;-75
2024/04/10 02:13:52;;;;;;;3.03;1.13;;;12.10;94.20;;;;;;5363100;26;20521;-74
2024/04/10 02:16:21;;;;;;;2.17;1.00;;;12.10;94.40;;;;;;5374964;26;21051;-75
2024/04/10 02:18:47;;;;;;;4.45;0.57;;;12.10;94.50;;;;;;5375716;26;20015;-75
2024/04/10 02:21:12;;;;;;;2.88;0.98;;;12.10;94.70;;;;;;5372714;26;20840;-75
2024/04/10 02:23:38;;;;;;;4.38;0.90;;;12.10;94.70;;;;;;5376566;26;20012;-74
2024/04/10 02:26:14;;;;;;;2.47;0.73;;;12.10;94.70;;;;;;5375544;26;20077;-74
2024/04/10 02:28:40;;;;;;;2.08;0.90;;;12.10;94.70;;;;;;5369120;26;20336;-74
2024/04/10 02:31:08;;;;;;;7.38;1.52;;;12.10;94.50;;;;;;5376508;26;20000;-75
2024/04/10 02:33:37;;;;;;;14.52;1.23;;;12.20;94.40;;;;;;5372431;26;20016;-74
2024/04/10 02:36:06;;;;;;;3.90;1.10;;;12.20;94.30;;;;;;5377335;26;20004;-75
2024/04/10 02:38:34;;;;;;;5.85;0.70;;;12.20;94.10;;;;;;5354280;26;20030;-75
2024/04/10 02:40:59;;;;;;;5.40;1.10;;;12.30;94.00;;;;;;5361915;26;19996;-74
2024/04/10 02:43:25;;;;;;;3.00;0.77;;;12.30;93.90;;;;;;5368372;26;20525;-74
2024/04/10 02:45:58;;;;;;;1.63;0.80;;;12.40;93.70;;;;;;5373282;26;20020;-74
2024/04/10 02:48:24;;;;;;;2.90;1.08;;;12.40;93.70;;;;;;5376834;26;20043;-75
2024/04/10 02:50:51;;;;;;;6.18;0.90;;;12.30;93.60;;;;;;5370153;26;20444;-75
2024/04/10 02:53:16;;;;;;;1.65;0.50;;;12.30;93.60;;;;;;5370860;26;20000;-75
2024/04/10 02:55:47;;;;;;;1.77;0.60;;;12.30;93.70;;;;;;5376923;26;20078;-74
2024/04/10 02:58:13;;;;;;;5.47;1.70;;;12.30;93.70;;;;;;5375141;26;20004;-75
2024/04/10 03:00:55;;;;;;;5.03;0.90;;;12.30;93.70;;;;;;5373612;26;20000;-74
2024/04/10 03:03:21;;;;;;;2.25;1.73;;;12.30;93.70;;;;;;5377141;26;20001;-75
2024/04/10 03:06:00;;;;;;;2.58;0.60;;;12.30;93.70;;;;;;5374271;26;20019;-74
2024/04/10 03:08:25;;;;;;;1.90;1.02;;;12.30;93.80;;;;;;5372997;26;20000;-75
2024/04/10 03:10:52;;;;;;;12.55;1.77;;;12.30;93.80;;;;;;5369822;26;20007;-75
2024/04/10 03:13:17;;;;;;;6.80;1.92;;;12.40;93.70;;;;;;5375356;26;20037;-74
2024/04/10 03:15:44;;;;;;;10.30;1.58;;;12.40;93.50;;;;;;5374790;26;19996;-74
2024/04/10 03:18:09;;;;;;;1.55;0.63;;;12.40;93.40;;;;;;5373300;26;20011;-74
2024/04/10 03:20:35;;;;;;;4.53;1.25;;;12.40;93.20;;;;;;5375820;26;19992;-75
2024/04/10 03:23:01;;;;;;;7.35;1.50;;;12.40;93.20;;;;;;5373703;26;20011;-75
2024/04/10 03:25:27;;;;;;;2.90;1.05;;;12.30;93.20;;;;;;5374621;26;20008;-75
2024/04/10 03:27:53;;;;;;;2.20;0.82;;;12.30;93.30;;;;;;5373581;26;20055;-74
2024/04/10 03:30:18;;;;;;;3.40;0.70;;;12.20;93.40;;;;;;5374541;26;20012;-75
2024/04/10 03:32:44;;;;;;;5.57;1.75;;;12.20;93.60;;;;;;5374780;26;20016;-75
2024/04/10 03:35:10;;;;;;;3.33;1.17;;;12.20;93.70;;;;;;5372769;26;20009;-75
2024/04/10 03:37:35;;;;;;;0.60;0.60;;;12.20;93.80;;;;;;5375442;26;20004;-74
2024/04/10 03:40:01;;;;;;;14.63;1.42;;;12.10;93.80;;;;;;5371250;26;19996;-74
2024/04/10 03:42:27;;;;;;;2.97;1.27;;;12.20;93.90;;;;;;5373542;26;20016;-75
2024/04/10 03:44:54;;;;;;;4.78;1.88;;;12.20;93.90;;;;;;5372744;26;20016;-74
2024/04/10 03:47:19;;;;;;;0.75;0.32;;;12.30;93.90;;;;;;5377267;26;20004;-74
2024/04/10 03:49:45;;;;;;;3.10;0.82;;;12.30;93.80;;;;;;5372479;26;20000;-75
2024/04/10 03:52:10;;;;;;;3.53;1.05;;;12.40;93.80;;;;;;5375596;26;20036;-74
2024/04/10 03:54:36;;;;;;;2.55;0.60;;;12.40;93.70;;;;;;5372064;26;20013;-74
2024/04/10 03:57:02;;;;;;;3.25;1.10;;;12.40;93.70;;;;;;5373700;26;20077;-75
2024/04/10 03:59:27;;;;;;;4.35;1.02;;;12.40;93.70;;;;;;5373498;26;20089;-74
2024/04/10 04:01:55;;;;;;;10.98;1.50;;;12.50;93.70;;;;;;5372446;26;20077;-75
2024/04/10 04:04:21;;;;;;;2.28;0.93;;;12.50;93.70;;;;;;5368643;26;20660;-74
2024/04/10 04:06:46;;;;;;;1.85;1.05;;;12.50;93.60;;;;;;5369741;26;20000;-75
2024/04/10 04:09:12;;;;;;;4.90;1.00;;;12.50;93.60;;;;;;5374086;26;20004;-74
2024/04/10 04:11:38;;;;;;;5.55;1.25;;;12.50;93.60;;;;;;5374875;26;20007;-74
2024/04/10 04:14:03;;;;;;;10.90;1.52;;;12.60;93.60;;;;;;5372893;26;20015;-75
2024/04/10 04:16:33;;;;;;;6.05;1.45;;;12.60;93.60;;;;;;5371330;26;20436;-74
2024/04/10 04:19:00;;;;;;;6.35;1.75;;;12.60;93.50;;;;;;5375321;26;20023;-74
2024/04/10 04:21:27;;;;;;;12.82;1.85;;;12.60;93.50;;;;;;5374451;26;20012;-75
2024/04/10 04:23:53;;;;;;;12.07;2.13;;;12.60;93.40;;;;;;5375246;26;20059;-75
2024/04/10 04:26:19;;;;;;;2.17;0.85;;;12.70;93.40;;;;;;5373256;26;20086;-75
2024/04/10 04:28:46;;;;;;;12.38;1.70;;;12.70;93.30;;;;;;5373036;26;20000;-75
2024/04/10 04:31:14;;;;;;;5.28;1.50;;;12.70;93.30;;;;;;5370981;26;20512;-75
2024/04/10 04:33:40;;;;;;;7.25;1.20;;;12.70;93.30;;;;;;5376293;26;20000;-75
2024/04/10 04:36:07;;;;;;;7.13;1.45;;;12.70;93.20;;;;;;5372077;26;20167;-74
2024/04/10 04:38:33;;;;;;;11.68;1.80;;;12.70;93.10;;;;;;5373968;26;20024;-75
2024/04/10 04:40:59;;;;;;;2.95;0.40;;;12.70;93.10;;;;;;5374556;26;20004;-75
2024/04/10 04:43:25;;;;;;;4.07;1.58;;;12.70;93.10;;;;;;5372907;26;20467;-75
2024/04/10 04:45:51;;;;;;;14.27;1.83;;;12.70;93.10;;;;;;5372881;26;20008;-74
2024/04/10 04:48:17;;;;;;;2.50;0.98;;;12.70;93.10;;;;;;5373878;26;20004;-74
2024/04/10 04:50:46;;;;;;;5.82;0.98;;;12.60;93.10;;;;;;5375025;26;20019;-74
2024/04/10 04:53:12;;;;;;;4.15;1.23;;;12.70;93.40;;;;;;5369650;26;20335;-74
2024/04/10 04:55:39;;;;;;;3.13;1.00;;;12.60;93.10;;;;;;5375085;26;20000;-73
2024/04/10 04:58:05;;;;;;;1.95;1.02;;;12.50;93.10;;;;;;5372719;26;20015;-73
2024/04/10 05:00:31;;;;;;;1.52;0.90;;;12.60;93.20;;;;;;5374229;26;20000;-73
2024/04/10 05:02:58;;;;;;;1.00;0.82;;;12.50;93.20;;;;;;5368916;26;21390;-74
2024/04/10 05:05:24;;;;;;;4.15;1.40;;;12.40;93.30;;;;;;5374724;26;20324;-75
2024/04/10 05:07:50;;;;;;;2.30;0.65;;;12.40;93.30;;;;;;5373464;26;20014;-75
2024/04/10 05:10:16;;;;;;;6.40;2.13;;;12.40;93.40;;;;;;5370056;26;20317;-75
2024/04/10 05:12:43;;;;;;;3.10;1.13;;;12.30;93.40;;;;;;5372279;26;20047;-74
2024/04/10 05:15:13;;;;;;;8.80;1.92;;;12.30;93.50;;;;;;5369264;26;20001;-74
2024/04/10 05:17:40;;;;;;;14.05;1.58;;;12.30;93.50;;;;;;5373732;26;20000;-74
2024/04/10 05:20:10;;;;;;;6.07;1.33;;;12.30;93.50;;;;;;5368258;26;20016;-74
2024/04/10 05:22:36;;;;;;;2.90;1.55;;;12.30;93.50;;;;;;5370496;26;20014;-74
2024/04/10 05:25:02;;;;;;;2.75;1.20;;;12.30;93.50;;;;;;5372173;26;20000;-75
2024/04/10 05:27:28;;;;;;;5.60;1.38;;;12.40;93.50;;;;;;5369651;26;20456;-75
2024/04/10 05:30:01;;;;;;;9.00;1.55;;;12.40;93.50;;;;;;5372449;26;20011;-74
2024/04/10 05:32:27;;;;;;;1.15;1.02;;;12.40;93.40;;;;;;5372522;26;20009;-75
2024/04/10 05:34:54;;;;;;;3.28;0.95;;;12.50;93.40;;;;;;5370844;26;20004;-75
2024/04/10 05:37:21;;;;;;;7.10;1.63;;;12.40;93.40;;;;;;5371416;26;20011;-74
2024/04/10 05:39:49;;;;;;;4.30;1.00;;;12.50;93.50;;;;;;5375473;26;20004;-74
2024/04/10 05:42:16;;;;;;;6.57;1.55;;;12.50;93.40;;;;;;5369217;26;20015;-74
2024/04/10 05:44:43;;;;;;;2.65;1.08;;;12.60;93.40;;;;;;5373429;26;20004;-75
2024/04/10 05:47:09;;;;;;;2.30;0.93;;;12.50;93.40;;;;;;5370965;26;20004;-75
2024/04/10 05:49:35;;;;;;;18.15;1.92;;;12.50;93.30;;;;;;5372170;26;20016;-74
2024/04/10 05:52:00;;;;;;;0.52;0.45;;;12.50;93.40;;;;;;5372430;26;20004;-74
2024/04/10 05:54:26;;;;;;;14.45;2.55;;;12.50;93.40;;;;;;5374685;26;20012;-74
2024/04/10 05:56:52;;;;;;;4.63;1.45;;;12.50;93.40;;;;;;5367088;26;20455;-75
2024/04/10 05:59:17;;;;;;;2.38;0.70;;;12.50;93.40;;;;;;5374362;26;20328;-75
2024/04/10 06:01:43;;;;;;;10.90;2.42;;;12.40;93.50;;;;;;5362713;26;20441;-75
2024/04/10 06:04:08;;;;;;;6.60;1.75;;;12.40;93.50;;;;;;5360396;26;20004;-75
2024/04/10 06:06:34;;;;;;;11.38;2.03;;;12.40;93.60;;;;;;5362021;26;20078;-75
2024/04/10 06:09:00;;;;;;;1.83;0.88;;;12.40;93.60;;;;;;5361597;26;20462;-75
2024/04/10 06:11:29;;;;;;;2.00;0.98;;;12.50;93.60;;;;;;5371720;26;20808;-75
2024/04/10 06:13:59;;;;;;;7.53;1.98;;;12.40;93.60;;;;;;5368614;26;19997;-75
2024/04/10 06:16:24;;;;;;;12.30;2.85;;;12.40;93.70;;;;;;5371179;26;20011;-75
2024/04/10 06:18:51;;;;;;;2.90;1.35;;;12.40;93.70;;;;;;5369089;26;20003;-75
2024/04/10 06:21:16;;;;;;;6.45;1.33;;;12.40;93.80;;;;;;5364366;26;20012;-75
2024/04/10 06:23:42;;;;;;;6.80;1.65;;;12.40;93.80;;;;;;5365985;26;19996;-75
2024/04/10 06:26:08;;;;;;;1.85;1.02;;;12.30;93.80;;;;;;5370554;26;20004;-75
2024/04/10 06:28:34;;;;;;;5.55;0.90;;;12.30;93.90;;;;;;5372194;26;20014;-75
2024/04/10 06:31:01;;;;;;;4.03;1.27;;;12.40;93.90;;;;;;5374082;26;19996;-75
2024/04/10 06:33:27;;;;;;;2.05;1.17;;;12.40;93.90;;;;;;5377695;26;20047;-75
2024/04/10 06:35:53;;;;;;;3.83;1.55;;;12.40;93.90;;;;;;5373289;26;20028;-75
2024/04/10 06:38:19;;;;;;;3.42;0.82;;;12.40;93.80;;;;;;5369740;26;20008;-75
2024/04/10 06:40:59;;;;;;;4.05;2.00;;;12.40;93.80;;;;;;5375259;26;20076;-75
2024/04/10 06:43:25;;;;;;;2.15;1.20;;;12.40;93.80;;;;;;5365728;26;20406;-75
2024/04/10 06:45:58;;;;;;;13.13;2.17;;;12.40;93.80;;;;;;5367504;26;20655;-75
2024/04/10 06:48:24;;;;;;;6.77;1.60;;;12.40;93.90;;;;;;5375290;26;20000;-75
2024/04/10 06:51:05;;;;;;;5.28;1.77;;;12.40;93.90;;;;;;5379468;26;20287;-75
2024/04/10 06:53:31;;;;;;;7.35;1.60;;;12.40;94.00;;;;;;5369974;26;20451;-75
2024/04/10 06:55:58;;;;;;;5.05;2.22;;;12.40;94.00;;;;;;5368481;26;20020;-75
2024/04/10 06:58:24;;;;;;;11.13;2.58;;;12.40;94.00;;;;;;5371839;26;22260;-75
2024/04/10 07:00:57;;;;;;;7.60;2.33;;;12.40;94.20;;;;;;5373264;26;20000;-75
2024/04/10 07:03:27;;;;;;;4.70;2.03;;;12.30;94.00;;;;;;5348964;26;20021;-74
2024/04/10 07:06:06;;;;;;;3.90;1.38;;;12.30;94.10;;;;;;5362403;26;20008;-74
2024/04/10 07:08:37;;;;;;;9.30;1.27;;;12.30;94.20;;;;;;5376929;26;20019;-74
2024/04/10 07:11:11;;;;;;;6.32;2.13;;;12.30;94.30;;;;;;5375719;26;20004;-74
2024/04/10 07:13:56;;;;;;;10.93;2.70;;;12.30;94.20;;;;;;5372044;26;20000;-74
2024/04/10 07:16:26;;;;;;;8.18;2.17;;;12.30;94.40;;;;;;5376354;26;20024;-74
2024/04/10 07:18:55;;;;;;;3.75;1.73;;;12.30;94.50;;;;;;5360114;26;20343;-75
2024/04/10 07:21:21;;;;;;;3.40;1.92;;;12.30;94.40;;;;;;5372238;26;20023;-74
2024/04/10 07:23:48;;;;;;;10.77;1.85;;;12.30;94.60;;;;;;5375083;26;20028;-74
2024/04/10 07:26:20;;;;;;;11.48;2.90;;;12.30;94.60;;;;;;5372904;26;20405;-74
2024/04/10 07:28:46;;;;;;;5.18;1.38;;;12.30;94.50;;;;;;5373913;26;20460;-75
2024/04/10 07:31:16;;;;;;;4.55;1.70;;;12.40;94.70;;;;;;5372956;26;20470;-74
2024/04/10 07:33:42;;;;;;;3.17;1.42;;;12.40;94.70;;;;;;5374345;26;20015;-71
2024/04/10 07:36:13;;;;;;;6.20;2.22;;;12.40;94.60;;;;;;5365967;26;20447;-75
2024/04/10 07:38:40;;;;;;;10.32;1.83;;;12.50;94.60;;;;;;5374029;26;20035;-75
2024/04/10 07:41:06;;;;;;;8.38;2.97;;;12.50;94.70;;;;;;5373153;26;20004;-74
2024/04/10 07:43:34;;;;;;;6.82;2.00;;;12.50;94.70;;;;;;5375963;26;20463;-74
2024/04/10 07:46:10;;;;;;;9.82;2.13;;;12.50;94.60;;;;;;5374631;26;20007;-75
2024/04/10 07:48:37;;;;;;;6.55;2.60;;;12.50;94.50;;;;;;5370312;26;20095;-75
2024/04/10 07:51:10;;;;;;;9.85;2.70;;;12.50;94.60;;;;;;5374309;26;20015;-74
2024/04/10 07:53:39;;;;;;;0.77;0.68;;;12.50;94.50;;;;;;5347360;26;20016;-75
2024/04/10 07:56:07;;;;;;;6.38;2.65;;;12.50;94.40;;;;;;5366951;26;20072;-74
2024/04/10 07:58:33;;;;;;;8.40;2.55;;;12.60;94.50;;;;;;5374190;26;20012;-74
2024/04/10 08:01:00;;;;;;;13.15;4.20;;;12.60;94.40;;;;;;5375987;26;20000;-74
2024/04/10 08:03:29;;;;;;;12.38;2.47;;;12.60;94.20;;;;;;5370978;26;20871;-74
2024/04/10 08:05:59;;;;;;;8.18;1.83;;;12.70;94.30;;;;;;5371422;26;20038;-74
2024/04/10 08:08:25;;;;;;;8.77;2.70;;;12.60;94.20;;;;;;5355724;26;20008;-74
2024/04/10 08:11:00;;;;;;;6.40;1.73;;;12.70;94.10;;;;;;5370444;26;20012;-75
2024/04/10 08:13:27;;;;;;;8.88;2.60;;;12.70;94.00;;;;;;5359527;26;20010;-75
2024/04/10 08:16:04;;;;;;;7.70;2.30;;;12.70;93.80;;;;;;5372672;26;20438;-75
2024/04/10 08:18:31;;;;;;;13.98;3.28;;;12.70;93.90;;;;;;5372594;26;20001;-75
2024/04/10 08:21:04;;;;;;;10.73;1.90;;;12.80;93.60;;;;;;5374340;26;20015;-75
2024/04/10 08:23:31;;;;;;;10.00;2.13;;;12.80;93.80;;;;;;5375140;26;20004;-75
2024/04/10 08:25:58;;;;;;;2.92;1.33;;;12.70;93.80;;;;;;5374213;26;20041;-75
2024/04/10 08:28:25;;;;;;;4.75;1.98;;;12.80;93.90;;;;;;5374262;26;20000;-75
2024/04/10 08:30:54;;;;;;;6.07;2.35;;;12.80;93.90;;;;;;5374297;26;20004;-75
2024/04/10 08:33:21;;;;;;;12.95;1.83;;;12.80;94.00;;;;;;5375370;26;20015;-75
2024/04/10 08:35:55;;;;;;;3.15;1.50;;;12.90;93.90;;;;;;5372641;26;20015;-76
2024/04/10 08:38:21;;;;;;;6.88;1.70;;;12.90;93.80;;;;;;5372712;26;20329;-75
2024/04/10 08:40:53;;;;;;;5.85;2.15;;;13.00;93.60;;;;;;5373104;26;20017;-75
2024/04/10 08:43:22;;;;;;;4.68;1.67;;;13.00;93.60;;;;;;5374172;26;20903;-75
2024/04/10 08:45:49;;;;;;;4.88;1.60;;;13.10;93.70;;;;;;5371757;26;20011;-75
2024/04/10 08:48:18;;;;;;;14.82;3.28;;;13.10;93.50;;;;;;5375254;26;20081;-75
2024/04/10 08:50:45;;;;;;;3.58;1.95;;;13.10;93.70;;;;;;5375408;26;20000;-75
2024/04/10 08:53:12;;;;;;;7.10;2.42;;;13.10;93.60;;;;;;5371979;26;20296;-75
2024/04/10 08:55:40;;;;;;;11.70;2.58;;;13.20;93.60;;;;;;5372701;26;20004;-75
2024/04/10 08:59:36;;;;;;;7.60;2.28;;;13.20;93.40;;;;;;5547668;25;20087;-75
2024/04/10 09:02:02;;;;;;;9.95;2.25;;;13.30;93.50;;;;;;5542944;25;19997;-75
2024/04/10 09:04:28;;;;;;;9.35;2.08;;;13.30;93.40;;;;;;5539425;25;20012;-75
2024/04/10 09:07:03;;;;;;;5.03;1.98;;;13.30;93.20;;;;;;5544189;25;20433;-76
2024/04/10 09:09:29;;;;;;;6.85;2.00;;;13.30;93.20;;;;;;5556669;25;20001;-76
2024/04/10 09:11:55;;;;;;;13.20;3.15;;;13.30;93.20;;;;;;5564890;25;20511;-76
2024/04/10 09:14:20;;;;;;;5.30;2.33;;;13.30;93.20;;;;;;5545120;25;20000;-75
2024/04/10 09:16:46;;;;;;;3.83;1.65;;;13.30;93.20;;;;;;5561983;25;20000;-76
2024/04/10 09:19:17;;;;;;;2.00;1.15;;;13.30;93.20;;;;;;5542542;25;20747;-75
2024/04/10 09:21:56;;;;;;;7.97;2.40;;;13.30;93.30;;;;;;5543678;25;20016;-75
2024/04/10 09:24:29;;;;;;;7.90;2.22;;;13.30;93.30;;;;;;5563622;25;20004;-75
2024/04/10 09:26:56;;;;;;;10.38;1.88;;;13.30;93.30;;;;;;5556571;25;19997;-76
2024/04/10 09:29:28;;;;;;;6.00;2.63;;;13.40;93.30;;;;;;5537630;25;20067;-75
2024/04/10 09:31:58;;;;;;;5.03;1.67;;;13.40;93.40;;;;;;5557371;25;20004;-76
2024/04/10 09:34:25;;;;;;;5.65;1.63;;;13.40;93.40;;;;;;5540029;25;20012;-76
2024/04/10 09:36:51;;;;;;;4.43;1.73;;;13.40;93.50;;;;;;5538438;25;19997;-76
2024/04/10 09:39:22;;;;;;;11.77;2.28;;;13.40;93.60;;;;;;5535646;25;20432;-76
2024/04/10 09:41:55;;;;;;;10.30;2.53;;;13.50;93.60;;;;;;5537127;25;20001;-76
2024/04/10 09:44:25;;;;;;;2.70;1.55;;;13.50;93.50;;;;;;5543176;25;19993;-75
2024/04/10 09:46:58;;;;;;;4.35;1.75;;;13.50;93.40;;;;;;5542998;25;20467;-75
2024/04/10 09:49:41;;;;;;;4.68;2.03;;;13.60;93.30;;;;;;5555882;25;20080;-75
2024/04/10 09:52:08;;;;;;;8.80;2.10;;;13.60;93.40;;;;;;5550710;25;20317;-76
2024/04/10 09:54:35;;;;;;;6.53;1.80;;;13.60;92.60;;;;;;5547699;25;20043;-75
2024/04/10 09:57:01;;;;;;;6.82;1.80;;;13.60;92.60;;;;;;5562341;25;19998;-75
2024/04/10 09:59:27;;;;;;;6.35;1.92;;;13.70;92.60;;;;;;5560794;25;20012;-75
2024/04/10 10:01:54;;;;;;;12.57;2.47;;;13.60;92.40;;;;;;5541151;25;20436;-76
2024/04/10 10:04:20;;;;;;;8.35;2.22;;;13.60;92.40;;;;;;5546471;25;20344;-77
2024/04/10 10:06:46;;;;;;;11.85;2.22;;;13.70;92.30;;;;;;5560207;25;20081;-76
2024/04/10 10:09:22;;;;;;;6.65;1.80;;;13.70;92.70;;;;;;5557292;25;20004;-74
2024/04/10 10:11:58;;;;;;;9.35;2.00;;;13.70;92.40;;;;;;5547704;25;19997;-76
2024/04/10 10:14:28;;;;;;;7.13;1.90;;;13.70;92.30;;;;;;5521634;25;20016;-76
2024/04/10 10:17:07;;;;;;;11.63;2.80;;;13.70;92.40;;;;;;5547325;25;20048;-75
2024/04/10 10:19:35;;;;;;;8.40;2.60;;;13.70;92.30;;;;;;5536309;25;20329;-75
2024/04/10 10:22:01;;;;;;;7.60;2.85;;;13.70;92.40;;;;;;5520288;25;20402;-75
2024/04/10 10:24:29;;;;;;;4.75;2.00;;;13.80;92.50;;;;;;5545107;25;20013;-75
2024/04/10 10:26:59;;;;;;;3.72;1.27;;;13.80;92.40;;;;;;5544723;25;20005;-76
2024/04/10 10:29:26;;;;;;;10.50;2.50;;;13.90;92.80;;;;;;5527222;25;20038;-76
2024/04/10 10:32:01;;;;;;;7.22;2.38;;;13.90;92.90;;;;;;5531693;25;20356;-76
2024/04/10 10:34:28;;;;;;;14.32;2.40;;;14.00;92.90;;;;;;5536382;25;20049;-76
2024/04/10 10:36:54;;;;;;;11.18;2.20;;;14.00;92.60;;;;;;5546808;25;20025;-76
2024/04/10 10:39:20;;;;;;;7.45;1.77;;;14.10;92.80;;;;;;5549204;25;19996;-76
2024/04/10 10:41:46;;;;;;;12.50;3.40;;;14.10;92.60;;;;;;5528419;25;20008;-76
2024/04/10 10:44:22;;;;;;;6.95;2.30;;;14.10;92.60;;;;;;5527669;25;19997;-75
2024/04/10 10:46:47;;;;;;;5.05;1.63;;;14.10;92.60;;;;;;5537943;25;20007;-76
2024/04/10 10:49:14;;;;;;;9.82;1.98;;;14.20;92.10;;;;;;5535498;25;19993;-75
2024/04/10 10:51:42;;;;;;;7.22;2.17;;;14.30;92.50;;;;;;5540501;25;19992;-76
2024/04/10 10:54:11;;;;;;;5.97;1.67;;;14.20;92.50;;;;;;5543084;25;20005;-76
2024/04/10 10:56:36;;;;;;;6.90;2.28;;;14.30;92.10;;;;;;5551840;25;20426;-75
2024/04/10 10:59:09;;;;;;;4.53;1.80;;;14.30;92.00;;;;;;5526719;25;20005;-75
2024/04/10 11:01:35;;;;;;;9.88;2.35;;;14.40;92.20;;;;;;5544292;25;20013;-75
2024/04/10 11:04:13;;;;;;;10.68;2.72;;;14.40;91.90;;;;;;5550641;25;20063;-75
2024/04/10 11:06:38;;;;;;;3.38;1.58;;;14.50;92.20;;;;;;5554430;25;20001;-75
2024/04/10 11:09:10;;;;;;;5.40;1.73;;;14.50;92.20;;;;;;5547686;25;20032;-76
2024/04/10 11:11:40;;;;;;;3.28;1.55;;;14.60;91.90;;;;;;5552743;25;19997;-76
2024/04/10 11:14:08;;;;;;;7.85;2.33;;;14.70;92.10;;;;;;5549948;25;20060;-75
2024/04/10 11:16:34;;;;;;;11.52;2.10;;;14.70;91.90;;;;;;5551147;25;20005;-74
2024/04/10 11:19:01;;;;;;;4.45;1.63;;;14.70;91.90;;;;;;5546473;25;20044;-76
2024/04/10 11:21:27;;;;;;;8.07;2.00;;;14.80;91.80;;;;;;5536009;25;20011;-75
2024/04/10 11:23:53;;;;;;;15.20;2.50;;;14.80;92.20;;;;;;5545515;25;20003;-75
2024/04/10 11:26:19;;;;;;;8.93;2.17;;;14.90;91.70;;;;;;5524597;25;20055;-75
2024/04/10 11:28:51;;;;;;;8.80;2.10;;;14.90;91.50;;;;;;5553588;25;20072;-75
2024/04/10 11:31:17;;;;;;;4.45;1.40;;;15.00;91.20;;;;;;5550662;25;20005;-74
2024/04/10 11:33:42;;;;;;;3.50;1.80;;;15.00;91.40;;;;;;5542229;25;20005;-74
2024/04/10 11:36:08;;;;;;;5.15;1.85;;;15.00;91.60;;;;;;5545000;25;19992;-76
2024/04/10 11:38:37;;;;;;;7.65;2.55;;;15.00;91.60;;;;;;5554145;25;20013;-76
2024/04/10 11:41:04;;;;;;;13.20;2.63;;;15.00;91.10;;;;;;5546543;25;20021;-75
2024/04/10 11:43:30;;;;;;;7.50;1.95;;;15.00;90.80;;;;;;5553740;25;20005;-75
2024/04/10 11:45:55;;;;;;;4.15;1.63;;;15.00;90.60;;;;;;5550958;25;20008;-75
2024/04/10 11:48:21;;;;;;;4.88;2.15;;;15.00;90.80;;;;;;5551731;25;20093;-75
2024/04/10 11:50:47;;;;;;;14.35;2.47;;;15.10;90.30;;;;;;5550245;25;20486;-74
2024/04/10 11:53:13;;;;;;;7.75;1.77;;;15.10;90.30;;;;;;5550411;25;20036;-75
2024/04/10 11:55:38;;;;;;;6.95;1.88;;;15.20;90.40;;;;;;5550118;25;19997;-75
2024/04/10 11:58:04;;;;;;;9.02;2.17;;;15.20;90.40;;;;;;5550549;25;20020;-75
2024/04/10 12:00:30;;;;;;;11.05;2.50;;;15.20;90.10;;;;;;5555099;25;20343;-75
2024/04/10 12:02:55;;;;;;;5.65;2.35;;;15.30;88.90;;;;;;5550705;25;20008;-75
2024/04/10 12:05:22;;;;;;;4.53;1.80;;;15.30;89.80;;;;;;5550685;25;20001;-75
2024/04/10 12:07:47;;;;;;;5.47;2.15;;;15.30;89.40;;;;;;5549538;25;20468;-75
2024/04/10 12:10:13;;;;;;;8.73;1.30;;;15.30;88.90;;;;;;5550323;25;20007;-75
2024/04/10 12:12:38;;;;;;;9.68;2.47;;;15.40;89.20;;;;;;5547066;25;20475;-75
2024/04/10 12:15:08;;;;;;;3.17;1.35;;;15.40;89.70;;;;;;5548433;25;21175;-75
2024/04/10 12:17:34;;;;;;;4.53;1.50;;;15.40;88.70;;;;;;5552560;25;20000;-75
2024/04/10 12:20:01;;;;;;;7.60;1.70;;;15.50;88.90;;;;;;5549196;25;20012;-75
2024/04/10 12:22:27;;;;;;;2.83;1.38;;;15.50;86.40;;;;;;5549482;25;20012;-75
2024/04/10 12:24:53;;;;;;;7.40;1.90;;;15.50;87.00;;;;;;5552096;25;20001;-75
2024/04/10 12:27:19;;;;;;;1.50;1.05;;;15.50;86.90;;;;;;5553082;25;20091;-75
2024/04/10 12:29:45;;;;;;;7.72;2.05;;;15.50;87.80;;;;;;5550336;25;19993;-75
2024/04/10 12:32:11;;;;;;;7.88;1.65;;;15.60;86.60;;;;;;5541077;25;20941;-75
2024/04/10 12:34:38;;;;;;;4.28;1.48;;;15.60;86.30;;;;;;5548142;25;20015;-75
2024/04/10 12:39:48;;;;;;;7.38;1.75;;;15.70;85.50;;;;;;5548599;25;20008;-75
2024/04/10 12:42:15;;;;;;;1.70;0.98;;;15.70;85.90;;;;;;5551754;25;20395;-75
2024/04/10 12:44:41;;;;;;;5.40;1.67;;;15.70;87.30;;;;;;5546678;25;20004;-75
2024/04/10 12:47:08;;;;;;;8.05;2.08;;;15.80;86.80;;;;;;5550246;25;20643;-75
2024/04/10 12:49:36;;;;;;;3.95;1.35;;;15.80;86.40;;;;;;5550702;25;20012;-75
2024/04/10 12:52:02;;;;;;;4.57;1.55;;;15.80;86.00;;;;;;5541608;25;19993;-75